The Dalles, OR (97058)

9:58 AM PDT on July 25, 2016 (GMT -0700)
17th and Jefferson ST | | Change Station

Elev 486 ft 45.59 °N, 121.19 °W | Updated 14 seconds ago

Clear
Clear
78.8 °F
Feels Like 80 °F
N
2.3
Wind Variable Wind from NE
Gusts 2.3 mph

Today
High -- | Low -- °F
--% Chance of Precip.
Yesterday
High -- | Low -- °F
Precip. -- in
Pressure 29.96 in
Visibility 10.0 miles
Clouds Clear
Heat Index 80 °F
Dew Point 60 °F
Humidity 52%
Rainfall 0.00 in
Snow Depth Not available.
5:41 AM 8:40 PM
Waning Gibbous, 64% visible
METAR KDLS 251653Z AUTO 33016G22KT 10SM CLR 26/13 A2996 RMK AO2 SLP144 T02610133
Pressure 29.96 in
Visibility 10.0 miles
Clouds Clear
Heat Index 80 °F
Dew Point 60 °F
Humidity 52%
Rainfall 0.00 in
Snow Depth Not available.
5:41 AM 8:40 PM
Waning Gibbous, 64% visible
METAR KDLS 251653Z AUTO 33016G22KT 10SM CLR 26/13 A2996 RMK AO2 SLP144 T02610133

10-Day Weather Forecast

Almanac

Astronomy

Jul. 25, 2016 Rise Set
Actual Time
Civil Twilight
Nautical Twilight
Astronomical Twilight
Moon
Length of Visible Light
Length of Day
Tomorrow will be .
, % of the Moon is Illuminated

Today's Extremes

State Highs State Lows

Community

WunderPhotos

Upload Photos

1,927,349 photos uploaded!

WunderBlog® & News

Nearby

Air Quality

  Air Quality AQ Index Pollutant
Not available.

Snow Depth

Station Depth Elevation

Earthquake Activity

City Distance Mag. Time & Date
Minimum magnitude displayed is 2.5.

Coastal Water Temperatures

Place Temperature

Stations

Nearby Weather Stations

Station Location Temp. Windchill Dew Point Humidity Wind Precip. Elev Updated Type
                   

Watches & Warnings

There are currently no watches in effect.